sensor_id;sensor_type;location;lat;lon;timestamp;temperature;humidity
55203;DHT22;41077;52.956;6.796;2022-07-15T00:02:24;13.00;99.90
55203;DHT22;41077;52.956;6.796;2022-07-15T00:04:51;13.00;99.90
55203;DHT22;41077;52.956;6.796;2022-07-15T00:07:17;13.10;99.90
55203;DHT22;41077;52.956;6.796;2022-07-15T00:09:42;13.10;99.90
55203;DHT22;41077;52.956;6.796;2022-07-15T00:12:26;13.10;99.90
55203;DHT22;41077;52.956;6.796;2022-07-15T00:14:52;13.10;99.90
55203;DHT22;41077;52.956;6.796;2022-07-15T00:17:18;13.20;99.90
55203;DHT22;41077;52.956;6.796;2022-07-15T00:19:44;13.20;99.90
55203;DHT22;41077;52.956;6.796;2022-07-15T00:22:10;13.20;99.90
55203;DHT22;41077;52.956;6.796;2022-07-15T00:24:37;13.30;99.90
55203;DHT22;41077;52.956;6.796;2022-07-15T00:27:03;13.30;99.90
55203;DHT22;41077;52.956;6.796;2022-07-15T00:29:30;13.40;99.90
55203;DHT22;41077;52.956;6.796;2022-07-15T00:31:56;13.40;99.90
55203;DHT22;41077;52.956;6.796;2022-07-15T00:34:21;13.40;99.90
55203;DHT22;41077;52.956;6.796;2022-07-15T00:36:47;13.30;99.90
55203;DHT22;41077;52.956;6.796;2022-07-15T00:39:14;13.30;99.90
55203;DHT22;41077;52.956;6.796;2022-07-15T00:41:41;13.30;99.90
55203;DHT22;41077;52.956;6.796;2022-07-15T00:44:08;13.30;99.90
55203;DHT22;41077;52.956;6.796;2022-07-15T00:46:35;13.30;99.90
55203;DHT22;41077;52.956;6.796;2022-07-15T00:49:03;13.30;99.90
55203;DHT22;41077;52.956;6.796;2022-07-15T00:51:38;13.30;99.90
55203;DHT22;41077;52.956;6.796;2022-07-15T00:54:05;13.30;99.90
55203;DHT22;41077;52.956;6.796;2022-07-15T00:56:39;13.20;99.90
55203;DHT22;41077;52.956;6.796;2022-07-15T00:59:06;13.30;99.90
55203;DHT22;41077;52.956;6.796;2022-07-15T01:01:33;13.30;99.90
55203;DHT22;41077;52.956;6.796;2022-07-15T01:04:02;13.30;99.90
55203;DHT22;41077;52.956;6.796;2022-07-15T01:06:28;13.30;99.90
55203;DHT22;41077;52.956;6.796;2022-07-15T01:08:54;13.20;99.90
55203;DHT22;41077;52.956;6.796;2022-07-15T01:11:20;13.30;99.90
55203;DHT22;41077;52.956;6.796;2022-07-15T01:13:46;13.20;99.90
55203;DHT22;41077;52.956;6.796;2022-07-15T01:16:12;13.20;99.90
55203;DHT22;41077;52.956;6.796;2022-07-15T01:18:37;13.20;99.90
55203;DHT22;41077;52.956;6.796;2022-07-15T01:21:03;13.30;99.90
55203;DHT22;41077;52.956;6.796;2022-07-15T01:23:29;13.30;99.90
55203;DHT22;41077;52.956;6.796;2022-07-15T01:25:55;13.30;99.90
55203;DHT22;41077;52.956;6.796;2022-07-15T01:28:21;13.30;99.90
55203;DHT22;41077;52.956;6.796;2022-07-15T01:30:47;13.20;99.90
55203;DHT22;41077;52.956;6.796;2022-07-15T01:33:13;13.20;99.90
55203;DHT22;41077;52.956;6.796;2022-07-15T01:35:39;13.10;99.90
55203;DHT22;41077;52.956;6.796;2022-07-15T01:38:05;13.10;99.90
55203;DHT22;41077;52.956;6.796;2022-07-15T01:40:30;13.10;99.90
55203;DHT22;41077;52.956;6.796;2022-07-15T01:42:56;13.10;99.90
55203;DHT22;41077;52.956;6.796;2022-07-15T01:45:22;13.10;99.90
55203;DHT22;41077;52.956;6.796;2022-07-15T01:47:49;13.10;99.90
55203;DHT22;41077;52.956;6.796;2022-07-15T01:50:15;13.10;99.90
55203;DHT22;41077;52.956;6.796;2022-07-15T01:52:40;13.10;99.90
55203;DHT22;41077;52.956;6.796;2022-07-15T01:55:08;13.00;99.90
55203;DHT22;41077;52.956;6.796;2022-07-15T01:57:34;13.00;99.90
55203;DHT22;41077;52.956;6.796;2022-07-15T02:00:00;13.00;99.90
55203;DHT22;41077;52.956;6.796;2022-07-15T02:02:26;13.00;99.90
55203;DHT22;41077;52.956;6.796;2022-07-15T02:04:51;13.00;99.90
55203;DHT22;41077;52.956;6.796;2022-07-15T02:07:17;12.90;99.90
55203;DHT22;41077;52.956;6.796;2022-07-15T02:09:43;12.90;99.90
55203;DHT22;41077;52.956;6.796;2022-07-15T02:12:09;12.90;99.90
55203;DHT22;41077;52.956;6.796;2022-07-15T02:14:34;12.90;99.90
55203;DHT22;41077;52.956;6.796;2022-07-15T02:17:01;12.90;99.90
55203;DHT22;41077;52.956;6.796;2022-07-15T02:19:28;12.90;99.90
55203;DHT22;41077;52.956;6.796;2022-07-15T02:21:53;12.90;99.90
55203;DHT22;41077;52.956;6.796;2022-07-15T02:24:19;12.90;99.90
55203;DHT22;41077;52.956;6.796;2022-07-15T02:26:46;12.90;99.90
55203;DHT22;41077;52.956;6.796;2022-07-15T02:29:12;12.90;99.90
55203;DHT22;41077;52.956;6.796;2022-07-15T02:31:38;12.90;99.90
55203;DHT22;41077;52.956;6.796;2022-07-15T02:34:04;12.90;99.90
55203;DHT22;41077;52.956;6.796;2022-07-15T02:36:30;12.90;99.90
55203;DHT22;41077;52.956;6.796;2022-07-15T02:38:56;13.00;99.90
55203;DHT22;41077;52.956;6.796;2022-07-15T02:41:21;12.90;99.90
55203;DHT22;41077;52.956;6.796;2022-07-15T02:43:47;12.90;99.90
55203;DHT22;41077;52.956;6.796;2022-07-15T02:46:15;12.90;99.90
55203;DHT22;41077;52.956;6.796;2022-07-15T02:48:41;12.80;99.90
55203;DHT22;41077;52.956;6.796;2022-07-15T02:51:07;12.80;99.90
55203;DHT22;41077;52.956;6.796;2022-07-15T02:53:34;12.80;99.90
55203;DHT22;41077;52.956;6.796;2022-07-15T02:56:00;12.70;99.90
55203;DHT22;41077;52.956;6.796;2022-07-15T02:58:27;12.70;99.90
55203;DHT22;41077;52.956;6.796;2022-07-15T03:00:54;12.60;99.90
55203;DHT22;41077;52.956;6.796;2022-07-15T03:03:19;12.60;99.90
55203;DHT22;41077;52.956;6.796;2022-07-15T03:05:45;12.50;99.90
55203;DHT22;41077;52.956;6.796;2022-07-15T03:08:11;12.50;99.90
55203;DHT22;41077;52.956;6.796;2022-07-15T03:10:37;12.50;99.90
55203;DHT22;41077;52.956;6.796;2022-07-15T03:13:03;12.40;99.90
55203;DHT22;41077;52.956;6.796;2022-07-15T03:15:29;12.40;99.90
55203;DHT22;41077;52.956;6.796;2022-07-15T03:17:54;12.40;99.90
55203;DHT22;41077;52.956;6.796;2022-07-15T03:20:20;12.30;99.90
55203;DHT22;41077;52.956;6.796;2022-07-15T03:22:45;12.30;99.90
55203;DHT22;41077;52.956;6.796;2022-07-15T03:25:11;12.20;99.90
55203;DHT22;41077;52.956;6.796;2022-07-15T03:27:37;12.20;99.90
55203;DHT22;41077;52.956;6.796;2022-07-15T03:30:03;12.20;99.90
55203;DHT22;41077;52.956;6.796;2022-07-15T03:32:29;12.20;99.90
55203;DHT22;41077;52.956;6.796;2022-07-15T03:34:55;12.20;99.90
55203;DHT22;41077;52.956;6.796;2022-07-15T03:37:22;12.10;99.90
55203;DHT22;41077;52.956;6.796;2022-07-15T03:39:49;12.00;99.90
55203;DHT22;41077;52.956;6.796;2022-07-15T03:42:14;12.00;99.90
55203;DHT22;41077;52.956;6.796;2022-07-15T03:44:40;12.00;99.90
55203;DHT22;41077;52.956;6.796;2022-07-15T03:47:05;12.00;99.90
55203;DHT22;41077;52.956;6.796;2022-07-15T03:49:31;12.00;99.90
55203;DHT22;41077;52.956;6.796;2022-07-15T03:51:57;12.00;99.90
55203;DHT22;41077;52.956;6.796;2022-07-15T03:54:23;12.00;99.90
55203;DHT22;41077;52.956;6.796;2022-07-15T03:56:48;12.00;99.90
55203;DHT22;41077;52.956;6.796;2022-07-15T03:59:15;12.00;99.90
55203;DHT22;41077;52.956;6.796;2022-07-15T04:01:41;12.00;99.90
55203;DHT22;41077;52.956;6.796;2022-07-15T04:04:07;11.90;99.90
55203;DHT22;41077;52.956;6.796;2022-07-15T04:06:32;12.00;99.90
55203;DHT22;41077;52.956;6.796;2022-07-15T04:08:58;12.00;99.90
55203;DHT22;41077;52.956;6.796;2022-07-15T04:11:24;11.90;99.90
55203;DHT22;41077;52.956;6.796;2022-07-15T04:13:50;12.00;99.90
55203;DHT22;41077;52.956;6.796;2022-07-15T04:16:16;12.00;99.90
55203;DHT22;41077;52.956;6.796;2022-07-15T04:18:41;12.10;99.90
55203;DHT22;41077;52.956;6.796;2022-07-15T04:21:07;12.00;99.90
55203;DHT22;41077;52.956;6.796;2022-07-15T04:23:33;12.10;99.90
55203;DHT22;41077;52.956;6.796;2022-07-15T04:25:59;12.10;99.90
55203;DHT22;41077;52.956;6.796;2022-07-15T04:28:25;12.10;99.90
55203;DHT22;41077;52.956;6.796;2022-07-15T04:30:51;12.10;99.90
55203;DHT22;41077;52.956;6.796;2022-07-15T04:33:17;12.10;99.90
55203;DHT22;41077;52.956;6.796;2022-07-15T04:35:43;12.10;99.90
55203;DHT22;41077;52.956;6.796;2022-07-15T04:38:09;12.10;99.90
55203;DHT22;41077;52.956;6.796;2022-07-15T04:40:36;12.20;99.90
55203;DHT22;41077;52.956;6.796;2022-07-15T04:43:02;12.20;99.90
55203;DHT22;41077;52.956;6.796;2022-07-15T04:45:29;12.20;99.90
55203;DHT22;41077;52.956;6.796;2022-07-15T04:47:54;12.30;99.90
55203;DHT22;41077;52.956;6.796;2022-07-15T04:50:20;12.30;99.90
55203;DHT22;41077;52.956;6.796;2022-07-15T04:53:05;12.40;99.90
55203;DHT22;41077;52.956;6.796;2022-07-15T04:55:31;12.50;99.90
55203;DHT22;41077;52.956;6.796;2022-07-15T04:57:57;12.50;99.90
55203;DHT22;41077;52.956;6.796;2022-07-15T05:00:22;12.60;99.90
55203;DHT22;41077;52.956;6.796;2022-07-15T05:02:48;12.60;99.90
55203;DHT22;41077;52.956;6.796;2022-07-15T05:05:14;12.70;99.90
55203;DHT22;41077;52.956;6.796;2022-07-15T05:07:40;12.70;99.90
55203;DHT22;41077;52.956;6.796;2022-07-15T05:10:07;12.80;99.90
55203;DHT22;41077;52.956;6.796;2022-07-15T05:12:33;12.80;99.90
55203;DHT22;41077;52.956;6.796;2022-07-15T05:14:58;12.90;99.90
55203;DHT22;41077;52.956;6.796;2022-07-15T05:17:24;12.90;99.90
55203;DHT22;41077;52.956;6.796;2022-07-15T05:19:51;13.00;99.90
55203;DHT22;41077;52.956;6.796;2022-07-15T05:22:18;13.00;99.90
55203;DHT22;41077;52.956;6.796;2022-07-15T05:24:44;13.10;99.90
55203;DHT22;41077;52.956;6.796;2022-07-15T05:27:10;13.10;99.90
55203;DHT22;41077;52.956;6.796;2022-07-15T05:29:36;13.10;99.90
55203;DHT22;41077;52.956;6.796;2022-07-15T05:32:02;13.10;99.90
55203;DHT22;41077;52.956;6.796;2022-07-15T05:34:28;13.20;99.90
55203;DHT22;41077;52.956;6.796;2022-07-15T05:36:53;13.20;99.90
55203;DHT22;41077;52.956;6.796;2022-07-15T05:39:19;13.20;99.90
55203;DHT22;41077;52.956;6.796;2022-07-15T05:41:45;13.30;99.90
55203;DHT22;41077;52.956;6.796;2022-07-15T05:44:11;13.30;99.90
55203;DHT22;41077;52.956;6.796;2022-07-15T05:46:37;13.40;99.90
55203;DHT22;41077;52.956;6.796;2022-07-15T05:49:02;13.40;99.90
55203;DHT22;41077;52.956;6.796;2022-07-15T05:51:28;13.40;99.90
55203;DHT22;41077;52.956;6.796;2022-07-15T05:53:54;13.40;99.90
55203;DHT22;41077;52.956;6.796;2022-07-15T05:56:20;13.50;99.90
55203;DHT22;41077;52.956;6.796;2022-07-15T05:58:46;13.50;99.90
55203;DHT22;41077;52.956;6.796;2022-07-15T06:01:11;13.50;99.90
55203;DHT22;41077;52.956;6.796;2022-07-15T06:03:37;13.60;99.90
55203;DHT22;41077;52.956;6.796;2022-07-15T06:06:03;13.60;99.90
55203;DHT22;41077;52.956;6.796;2022-07-15T06:08:30;13.70;99.90
55203;DHT22;41077;52.956;6.796;2022-07-15T06:10:56;13.70;99.90
55203;DHT22;41077;52.956;6.796;2022-07-15T06:13:22;13.70;99.90
55203;DHT22;41077;52.956;6.796;2022-07-15T06:15:48;13.70;99.90
55203;DHT22;41077;52.956;6.796;2022-07-15T06:18:14;13.80;99.90
55203;DHT22;41077;52.956;6.796;2022-07-15T06:20:40;13.80;99.90
55203;DHT22;41077;52.956;6.796;2022-07-15T06:23:05;13.80;99.90
55203;DHT22;41077;52.956;6.796;2022-07-15T06:25:31;13.80;99.90
55203;DHT22;41077;52.956;6.796;2022-07-15T06:27:57;14.00;99.90
55203;DHT22;41077;52.956;6.796;2022-07-15T06:30:23;14.00;99.90
55203;DHT22;41077;52.956;6.796;2022-07-15T06:32:49;14.10;99.90
55203;DHT22;41077;52.956;6.796;2022-07-15T06:35:14;14.20;99.90
55203;DHT22;41077;52.956;6.796;2022-07-15T06:37:40;14.40;99.90
55203;DHT22;41077;52.956;6.796;2022-07-15T06:40:06;14.50;99.90
55203;DHT22;41077;52.956;6.796;2022-07-15T06:42:32;14.60;99.90
55203;DHT22;41077;52.956;6.796;2022-07-15T06:44:58;14.70;99.90
55203;DHT22;41077;52.956;6.796;2022-07-15T06:47:24;14.80;99.90
55203;DHT22;41077;52.956;6.796;2022-07-15T06:49:50;15.00;99.90
55203;DHT22;41077;52.956;6.796;2022-07-15T06:52:16;15.00;99.90
55203;DHT22;41077;52.956;6.796;2022-07-15T06:54:42;15.10;99.90
55203;DHT22;41077;52.956;6.796;2022-07-15T06:57:08;15.30;99.90
55203;DHT22;41077;52.956;6.796;2022-07-15T06:59:35;15.30;99.90
55203;DHT22;41077;52.956;6.796;2022-07-15T07:02:00;15.50;99.90
55203;DHT22;41077;52.956;6.796;2022-07-15T07:04:26;15.60;99.90
55203;DHT22;41077;52.956;6.796;2022-07-15T07:06:52;15.70;99.90
55203;DHT22;41077;52.956;6.796;2022-07-15T07:09:18;15.70;99.90
55203;DHT22;41077;52.956;6.796;2022-07-15T07:11:43;15.70;99.90
55203;DHT22;41077;52.956;6.796;2022-07-15T07:14:09;15.60;99.90
55203;DHT22;41077;52.956;6.796;2022-07-15T07:16:35;15.60;99.90
55203;DHT22;41077;52.956;6.796;2022-07-15T07:19:00;15.60;99.90
55203;DHT22;41077;52.956;6.796;2022-07-15T07:21:26;15.60;99.90
55203;DHT22;41077;52.956;6.796;2022-07-15T07:23:52;15.70;99.90
55203;DHT22;41077;52.956;6.796;2022-07-15T07:26:18;15.80;99.90
55203;DHT22;41077;52.956;6.796;2022-07-15T07:28:44;16.00;99.90
55203;DHT22;41077;52.956;6.796;2022-07-15T07:31:13;16.10;99.90
55203;DHT22;41077;52.956;6.796;2022-07-15T07:33:39;16.20;99.90
55203;DHT22;41077;52.956;6.796;2022-07-15T07:36:06;16.30;99.90
55203;DHT22;41077;52.956;6.796;2022-07-15T07:38:33;16.50;99.90
55203;DHT22;41077;52.956;6.796;2022-07-15T07:40:59;16.60;99.90
55203;DHT22;41077;52.956;6.796;2022-07-15T07:43:25;16.70;99.90
55203;DHT22;41077;52.956;6.796;2022-07-15T07:45:50;16.70;99.90
55203;DHT22;41077;52.956;6.796;2022-07-15T07:48:16;16.70;99.90
55203;DHT22;41077;52.956;6.796;2022-07-15T07:50:43;16.60;99.90
55203;DHT22;41077;52.956;6.796;2022-07-15T07:53:09;16.60;99.90
55203;DHT22;41077;52.956;6.796;2022-07-15T07:55:36;16.50;99.90
55203;DHT22;41077;52.956;6.796;2022-07-15T07:58:02;16.50;99.90
55203;DHT22;41077;52.956;6.796;2022-07-15T08:00:29;16.60;99.90
55203;DHT22;41077;52.956;6.796;2022-07-15T08:02:56;16.80;99.90
55203;DHT22;41077;52.956;6.796;2022-07-15T08:05:23;17.00;99.90
55203;DHT22;41077;52.956;6.796;2022-07-15T08:07:49;17.30;99.90
55203;DHT22;41077;52.956;6.796;2022-07-15T08:10:15;17.30;99.90
55203;DHT22;41077;52.956;6.796;2022-07-15T08:12:42;17.20;99.90
55203;DHT22;41077;52.956;6.796;2022-07-15T08:15:11;17.10;99.90
55203;DHT22;41077;52.956;6.796;2022-07-15T08:17:38;17.10;99.90
55203;DHT22;41077;52.956;6.796;2022-07-15T08:20:08;17.20;99.90
55203;DHT22;41077;52.956;6.796;2022-07-15T08:22:35;17.40;99.90
55203;DHT22;41077;52.956;6.796;2022-07-15T08:25:01;17.50;99.90
55203;DHT22;41077;52.956;6.796;2022-07-15T08:27:27;17.50;99.90
55203;DHT22;41077;52.956;6.796;2022-07-15T08:29:53;17.40;99.90
55203;DHT22;41077;52.956;6.796;2022-07-15T08:32:19;17.30;99.90
55203;DHT22;41077;52.956;6.796;2022-07-15T08:34:45;17.20;99.90
55203;DHT22;41077;52.956;6.796;2022-07-15T08:37:13;17.20;99.90
55203;DHT22;41077;52.956;6.796;2022-07-15T08:39:39;17.00;99.90
55203;DHT22;41077;52.956;6.796;2022-07-15T08:42:06;16.90;99.90
55203;DHT22;41077;52.956;6.796;2022-07-15T08:44:32;16.90;99.90
55203;DHT22;41077;52.956;6.796;2022-07-15T08:47:03;16.80;99.90
55203;DHT22;41077;52.956;6.796;2022-07-15T08:49:31;16.80;99.90
55203;DHT22;41077;52.956;6.796;2022-07-15T08:51:58;16.80;99.90
55203;DHT22;41077;52.956;6.796;2022-07-15T08:54:26;16.90;99.90
55203;DHT22;41077;52.956;6.796;2022-07-15T08:56:52;16.90;99.90
55203;DHT22;41077;52.956;6.796;2022-07-15T08:59:17;16.90;99.90
55203;DHT22;41077;52.956;6.796;2022-07-15T09:01:46;17.30;99.90
55203;DHT22;41077;52.956;6.796;2022-07-15T09:04:12;17.60;99.90
55203;DHT22;41077;52.956;6.796;2022-07-15T09:06:43;17.80;99.90
55203;DHT22;41077;52.956;6.796;2022-07-15T09:09:33;17.80;99.90
55203;DHT22;41077;52.956;6.796;2022-07-15T09:12:04;17.70;99.90
55203;DHT22;41077;52.956;6.796;2022-07-15T09:14:31;17.50;99.90
55203;DHT22;41077;52.956;6.796;2022-07-15T09:22:51;16.90;99.90
55203;DHT22;41077;52.956;6.796;2022-07-15T09:25:17;16.70;99.90
55203;DHT22;41077;52.956;6.796;2022-07-15T09:27:44;16.60;99.90
55203;DHT22;41077;52.956;6.796;2022-07-15T09:30:29;16.60;99.90
55203;DHT22;41077;52.956;6.796;2022-07-15T09:33:18;16.50;99.90
55203;DHT22;41077;52.956;6.796;2022-07-15T09:36:14;16.40;99.90
55203;DHT22;41077;52.956;6.796;2022-07-15T09:41:42;16.60;99.90
55203;DHT22;41077;52.956;6.796;2022-07-15T09:44:10;16.70;99.90
55203;DHT22;41077;52.956;6.796;2022-07-15T09:46:51;16.90;99.90
55203;DHT22;41077;52.956;6.796;2022-07-15T09:51:57;17.00;99.90
55203;DHT22;41077;52.956;6.796;2022-07-15T09:56:57;17.10;99.90
55203;DHT22;41077;52.956;6.796;2022-07-15T09:59:23;17.10;99.90
55203;DHT22;41077;52.956;6.796;2022-07-15T10:01:49;17.00;99.90
55203;DHT22;41077;52.956;6.796;2022-07-15T10:04:17;17.00;99.90
55203;DHT22;41077;52.956;6.796;2022-07-15T10:06:43;17.00;99.90
55203;DHT22;41077;52.956;6.796;2022-07-15T10:09:09;16.90;99.90
55203;DHT22;41077;52.956;6.796;2022-07-15T10:11:42;16.90;99.90
55203;DHT22;41077;52.956;6.796;2022-07-15T10:16:51;17.00;99.90
55203;DHT22;41077;52.956;6.796;2022-07-15T10:22:18;17.20;99.90
55203;DHT22;41077;52.956;6.796;2022-07-15T10:25:14;17.30;99.90
55203;DHT22;41077;52.956;6.796;2022-07-15T10:28:12;17.50;99.90
55203;DHT22;41077;52.956;6.796;2022-07-15T10:30:42;17.80;99.90
55203;DHT22;41077;52.956;6.796;2022-07-15T10:33:15;17.90;99.90
55203;DHT22;41077;52.956;6.796;2022-07-15T10:35:51;18.20;99.90
55203;DHT22;41077;52.956;6.796;2022-07-15T10:39:00;18.60;99.90
55203;DHT22;41077;52.956;6.796;2022-07-15T10:41:18;18.90;99.90
55203;DHT22;41077;52.956;6.796;2022-07-15T10:43:53;19.10;99.90
55203;DHT22;41077;52.956;6.796;2022-07-15T10:46:23;19.40;99.90
55203;DHT22;41077;52.956;6.796;2022-07-15T10:48:51;19.70;99.90
55203;DHT22;41077;52.956;6.796;2022-07-15T10:54:05;19.80;99.90
55203;DHT22;41077;52.956;6.796;2022-07-15T10:56:36;19.80;99.90
55203;DHT22;41077;52.956;6.796;2022-07-15T10:59:09;19.70;99.90
55203;DHT22;41077;52.956;6.796;2022-07-15T11:01:37;19.80;99.90
55203;DHT22;41077;52.956;6.796;2022-07-15T11:04:17;19.60;99.90
55203;DHT22;41077;52.956;6.796;2022-07-15T11:15:17;19.80;99.90
55203;DHT22;41077;52.956;6.796;2022-07-15T11:17:45;19.70;99.90
55203;DHT22;41077;52.956;6.796;2022-07-15T11:20:32;19.80;99.90
55203;DHT22;41077;52.956;6.796;2022-07-15T11:23:00;20.10;99.90
55203;DHT22;41077;52.956;6.796;2022-07-15T11:25:32;20.60;99.90
55203;DHT22;41077;52.956;6.796;2022-07-15T11:28:11;20.70;99.90
55203;DHT22;41077;52.956;6.796;2022-07-15T11:30:48;20.70;99.90
55203;DHT22;41077;52.956;6.796;2022-07-15T11:33:20;20.40;99.90
55203;DHT22;41077;52.956;6.796;2022-07-15T11:35:54;20.20;99.90
55203;DHT22;41077;52.956;6.796;2022-07-15T11:38:25;19.80;99.90
55203;DHT22;41077;52.956;6.796;2022-07-15T11:40:58;19.60;99.90
55203;DHT22;41077;52.956;6.796;2022-07-15T11:43:43;19.40;99.90
55203;DHT22;41077;52.956;6.796;2022-07-15T11:46:29;19.30;99.90
55203;DHT22;41077;52.956;6.796;2022-07-15T11:48:56;19.20;99.90
55203;DHT22;41077;52.956;6.796;2022-07-15T11:51:31;19.10;99.90
55203;DHT22;41077;52.956;6.796;2022-07-15T11:53:57;19.00;99.90
55203;DHT22;41077;52.956;6.796;2022-07-15T11:56:23;18.90;99.90
55203;DHT22;41077;52.956;6.796;2022-07-15T11:58:54;18.80;99.90
55203;DHT22;41077;52.956;6.796;2022-07-15T12:01:23;18.80;99.90
55203;DHT22;41077;52.956;6.796;2022-07-15T12:03:53;19.10;99.90
55203;DHT22;41077;52.956;6.796;2022-07-15T12:06:24;19.60;99.90
55203;DHT22;41077;52.956;6.796;2022-07-15T12:08:53;19.80;99.90
55203;DHT22;41077;52.956;6.796;2022-07-15T12:11:25;19.70;99.90
55203;DHT22;41077;52.956;6.796;2022-07-15T12:13:57;19.80;99.90
55203;DHT22;41077;52.956;6.796;2022-07-15T12:16:32;19.60;99.90
55203;DHT22;41077;52.956;6.796;2022-07-15T12:19:00;19.50;99.90
55203;DHT22;41077;52.956;6.796;2022-07-15T12:21:27;19.50;99.90
55203;DHT22;41077;52.956;6.796;2022-07-15T12:24:14;19.60;99.90
55203;DHT22;41077;52.956;6.796;2022-07-15T12:29:24;19.90;99.90
55203;DHT22;41077;52.956;6.796;2022-07-15T12:31:57;20.40;99.90
55203;DHT22;41077;52.956;6.796;2022-07-15T12:37:16;21.50;99.40
55203;DHT22;41077;52.956;6.796;2022-07-15T12:42:23;21.90;97.40
55203;DHT22;41077;52.956;6.796;2022-07-15T12:47:35;21.50;98.50
55203;DHT22;41077;52.956;6.796;2022-07-15T12:50:03;21.80;98.90
55203;DHT22;41077;52.956;6.796;2022-07-15T12:52:37;22.20;97.10
55203;DHT22;41077;52.956;6.796;2022-07-15T12:55:16;22.10;96.40
55203;DHT22;41077;52.956;6.796;2022-07-15T12:57:42;21.60;96.00
55203;DHT22;41077;52.956;6.796;2022-07-15T13:00:16;21.40;95.40
55203;DHT22;41077;52.956;6.796;2022-07-15T13:05:40;20.80;96.30
55203;DHT22;41077;52.956;6.796;2022-07-15T13:08:08;20.60;97.40
55203;DHT22;41077;52.956;6.796;2022-07-15T13:10:34;20.40;97.80
55203;DHT22;41077;52.956;6.796;2022-07-15T13:13:00;20.40;97.80
55203;DHT22;41077;52.956;6.796;2022-07-15T13:15:26;20.80;97.60
55203;DHT22;41077;52.956;6.796;2022-07-15T13:17:52;21.30;97.20
55203;DHT22;41077;52.956;6.796;2022-07-15T13:20:18;21.90;96.40
55203;DHT22;41077;52.956;6.796;2022-07-15T13:22:44;22.30;94.40
55203;DHT22;41077;52.956;6.796;2022-07-15T13:25:11;22.40;93.50
55203;DHT22;41077;52.956;6.796;2022-07-15T13:27:37;22.60;93.20
55203;DHT22;41077;52.956;6.796;2022-07-15T13:30:04;22.20;93.40
55203;DHT22;41077;52.956;6.796;2022-07-15T13:32:30;21.80;93.70
55203;DHT22;41077;52.956;6.796;2022-07-15T13:34:56;21.30;94.00
55203;DHT22;41077;52.956;6.796;2022-07-15T13:37:22;21.00;94.90
55203;DHT22;41077;52.956;6.796;2022-07-15T13:39:48;20.80;95.70
55203;DHT22;41077;52.956;6.796;2022-07-15T13:42:13;20.80;95.60
55203;DHT22;41077;52.956;6.796;2022-07-15T13:44:39;20.60;95.80
55203;DHT22;41077;52.956;6.796;2022-07-15T13:47:05;20.50;96.40
55203;DHT22;41077;52.956;6.796;2022-07-15T13:49:30;20.40;96.60
55203;DHT22;41077;52.956;6.796;2022-07-15T13:52:14;20.20;96.90
55203;DHT22;41077;52.956;6.796;2022-07-15T13:54:40;20.20;97.30
55203;DHT22;41077;52.956;6.796;2022-07-15T13:57:06;20.10;97.90
55203;DHT22;41077;52.956;6.796;2022-07-15T13:59:32;20.20;97.80
55203;DHT22;41077;52.956;6.796;2022-07-15T14:01:58;20.00;97.70
55203;DHT22;41077;52.956;6.796;2022-07-15T14:04:24;19.90;98.20
55203;DHT22;41077;52.956;6.796;2022-07-15T14:06:49;19.90;98.90
55203;DHT22;41077;52.956;6.796;2022-07-15T14:09:15;19.90;98.90
55203;DHT22;41077;52.956;6.796;2022-07-15T14:11:41;19.80;99.40
55203;DHT22;41077;52.956;6.796;2022-07-15T14:14:07;19.80;99.30
55203;DHT22;41077;52.956;6.796;2022-07-15T14:16:33;19.70;99.40
55203;DHT22;41077;52.956;6.796;2022-07-15T14:18:58;19.60;99.10
55203;DHT22;41077;52.956;6.796;2022-07-15T14:21:24;19.50;99.20
55203;DHT22;41077;52.956;6.796;2022-07-15T14:23:50;19.40;99.70
55203;DHT22;41077;52.956;6.796;2022-07-15T14:26:15;19.30;99.90
55203;DHT22;41077;52.956;6.796;2022-07-15T14:28:42;19.30;99.90
55203;DHT22;41077;52.956;6.796;2022-07-15T14:31:09;19.30;99.90
55203;DHT22;41077;52.956;6.796;2022-07-15T14:33:41;19.40;99.90
55203;DHT22;41077;52.956;6.796;2022-07-15T14:36:11;19.40;99.90
55203;DHT22;41077;52.956;6.796;2022-07-15T14:38:37;19.50;99.90
55203;DHT22;41077;52.956;6.796;2022-07-15T14:41:05;19.60;99.90
55203;DHT22;41077;52.956;6.796;2022-07-15T14:43:31;19.70;99.90
55203;DHT22;41077;52.956;6.796;2022-07-15T14:45:57;19.70;99.90
55203;DHT22;41077;52.956;6.796;2022-07-15T14:48:23;19.80;99.90
55203;DHT22;41077;52.956;6.796;2022-07-15T14:50:49;19.80;99.90
55203;DHT22;41077;52.956;6.796;2022-07-15T14:53:15;19.90;99.90
55203;DHT22;41077;52.956;6.796;2022-07-15T14:55:41;20.30;99.90
55203;DHT22;41077;52.956;6.796;2022-07-15T14:58:07;20.30;99.90
55203;DHT22;41077;52.956;6.796;2022-07-15T15:00:32;20.30;99.90
55203;DHT22;41077;52.956;6.796;2022-07-15T15:02:58;20.20;99.90
55203;DHT22;41077;52.956;6.796;2022-07-15T15:05:24;20.10;99.90
55203;DHT22;41077;52.956;6.796;2022-07-15T15:07:50;20.10;99.80
55203;DHT22;41077;52.956;6.796;2022-07-15T15:10:15;20.10;99.40
55203;DHT22;41077;52.956;6.796;2022-07-15T15:12:41;19.90;99.60
55203;DHT22;41077;52.956;6.796;2022-07-15T15:15:07;19.80;99.90
55203;DHT22;41077;52.956;6.796;2022-07-15T15:17:33;19.80;99.90
55203;DHT22;41077;52.956;6.796;2022-07-15T15:19:58;19.80;99.90
55203;DHT22;41077;52.956;6.796;2022-07-15T15:22:29;19.70;99.90
55203;DHT22;41077;52.956;6.796;2022-07-15T15:24:54;19.60;99.90
55203;DHT22;41077;52.956;6.796;2022-07-15T15:27:20;19.70;99.90
55203;DHT22;41077;52.956;6.796;2022-07-15T15:29:46;19.60;99.90
55203;DHT22;41077;52.956;6.796;2022-07-15T15:32:11;19.60;99.90
55203;DHT22;41077;52.956;6.796;2022-07-15T15:34:41;19.60;99.90
55203;DHT22;41077;52.956;6.796;2022-07-15T15:37:07;19.60;99.90
55203;DHT22;41077;52.956;6.796;2022-07-15T15:39:33;19.70;99.90
55203;DHT22;41077;52.956;6.796;2022-07-15T15:41:58;19.70;99.90
55203;DHT22;41077;52.956;6.796;2022-07-15T15:44:24;19.70;99.90
55203;DHT22;41077;52.956;6.796;2022-07-15T15:46:50;19.70;99.90
55203;DHT22;41077;52.956;6.796;2022-07-15T15:49:15;19.70;99.90
55203;DHT22;41077;52.956;6.796;2022-07-15T15:51:41;19.70;99.90
55203;DHT22;41077;52.956;6.796;2022-07-15T15:54:07;19.70;99.90
55203;DHT22;41077;52.956;6.796;2022-07-15T15:56:32;19.70;99.90
55203;DHT22;41077;52.956;6.796;2022-07-15T15:58:58;19.80;99.90
55203;DHT22;41077;52.956;6.796;2022-07-15T16:01:24;19.90;99.90
55203;DHT22;41077;52.956;6.796;2022-07-15T16:03:50;20.00;99.90
55203;DHT22;41077;52.956;6.796;2022-07-15T16:06:16;20.00;99.90
55203;DHT22;41077;52.956;6.796;2022-07-15T16:08:42;20.00;99.90
55203;DHT22;41077;52.956;6.796;2022-07-15T16:11:08;20.00;99.90
55203;DHT22;41077;52.956;6.796;2022-07-15T16:13:33;19.90;99.90
55203;DHT22;41077;52.956;6.796;2022-07-15T16:15:59;20.00;99.90
55203;DHT22;41077;52.956;6.796;2022-07-15T16:18:25;19.90;99.90